createdAt,value
2022-08-03T00:01:46.132Z,8.93
2022-08-03T00:04:14.346Z,7.53
2022-08-03T00:06:42.598Z,9.68
2022-08-03T00:09:11.532Z,10.13
2022-08-03T00:11:41.030Z,8.98
2022-08-03T00:14:09.580Z,10.93
2022-08-03T00:16:37.723Z,8.95
2022-08-03T00:19:05.989Z,9.20
2022-08-03T00:21:34.215Z,8.50
2022-08-03T00:24:02.289Z,10.15
2022-08-03T00:26:31.762Z,9.85
2022-08-03T00:29:01.250Z,12.57
2022-08-03T00:31:39.831Z,10.48
2022-08-03T00:34:17.541Z,10.30
2022-08-03T00:36:59.064Z,8.82
2022-08-03T00:39:27.173Z,13.02
2022-08-03T00:41:55.295Z,12.55
2022-08-03T00:44:24.744Z,11.45
2022-08-03T00:47:00.561Z,12.32
2022-08-03T00:49:29.627Z,11.30
2022-08-03T00:51:57.925Z,13.02
2022-08-03T00:54:26.881Z,11.90
2022-08-03T00:56:59.893Z,13.80
2022-08-03T00:59:28.952Z,10.60
2022-08-03T01:01:57.227Z,11.07
2022-08-03T01:04:26.765Z,13.23
2022-08-03T01:07:04.517Z,11.20
2022-08-03T01:09:47.641Z,11.20
2022-08-03T01:12:25.273Z,11.18
2022-08-03T01:14:59.740Z,10.98
2022-08-03T01:17:35.377Z,12.25
2022-08-03T01:20:09.167Z,12.13
2022-08-03T01:22:51.593Z,10.98
2022-08-03T01:25:32.797Z,11.63
2022-08-03T01:28:21.029Z,12.15
2022-08-03T01:30:53.585Z,13.98
2022-08-03T01:33:25.425Z,13.77
2022-08-03T01:36:00.782Z,12.32
2022-08-03T01:38:33.261Z,12.70
2022-08-03T01:41:06.914Z,13.15
2022-08-03T01:44:28.686Z,13.02
2022-08-03T01:46:27.575Z,13.32
2022-08-03T01:48:57.324Z,14.00
2022-08-03T01:51:57.874Z,14.05
2022-08-03T01:54:15.753Z,14.43
2022-08-03T01:56:45.274Z,14.77
2022-08-03T01:59:15.691Z,14.60
2022-08-03T02:02:28.074Z,14.30
2022-08-03T02:04:39.534Z,13.60
2022-08-03T02:07:09.080Z,13.82
2022-08-03T02:09:40.030Z,15.23
2022-08-03T02:12:10.721Z,15.77
2022-08-03T02:14:40.610Z,14.88
2022-08-03T02:17:11.976Z,14.20
2022-08-03T02:19:40.797Z,15.20
2022-08-03T02:22:12.987Z,15.07
2022-08-03T02:24:41.947Z,17.25
2022-08-03T02:27:21.754Z,15.43
2022-08-03T02:29:54.020Z,16.58
2022-08-03T02:32:31.055Z,15.18
2022-08-03T02:35:01.749Z,15.88
2022-08-03T02:37:37.455Z,14.32
2022-08-03T02:40:13.999Z,17.85
2022-08-03T02:42:44.594Z,16.13
2022-08-03T02:45:14.498Z,15.85
2022-08-03T02:47:54.036Z,16.85
2022-08-03T02:50:24.538Z,16.70
2022-08-03T02:52:54.418Z,17.38
2022-08-03T02:55:23.997Z,13.98
2022-08-03T02:57:52.872Z,17.20
2022-08-03T03:00:28.443Z,16.45
2022-08-03T03:05:56.235Z,15.75
2022-08-03T03:08:25.851Z,14.32
2022-08-03T03:10:56.051Z,16.10
2022-08-03T03:13:25.054Z,17.10
2022-08-03T03:15:54.015Z,14.80
2022-08-03T03:18:25.083Z,17.45
2022-08-03T03:20:54.132Z,15.05
2022-08-03T03:23:23.276Z,16.30
2022-08-03T03:25:52.778Z,14.23
2022-08-03T03:28:21.214Z,15.15
2022-08-03T03:30:52.643Z,14.48
2022-08-03T03:33:23.183Z,17.52
2022-08-03T03:35:52.921Z,16.95
2022-08-03T03:38:21.614Z,16.13
2022-08-03T03:40:50.086Z,15.00
2022-08-03T03:43:19.570Z,15.55
2022-08-03T03:45:49.002Z,15.70
2022-08-03T03:48:17.318Z,16.02
2022-08-03T03:50:47.245Z,15.60
2022-08-03T03:53:16.618Z,18.67
2022-08-03T03:55:57.861Z,16.30
2022-08-03T03:58:30.766Z,17.40
2022-08-03T04:00:58.948Z,17.90
2022-08-03T04:03:27.145Z,18.35
2022-08-03T04:06:14.350Z,21.98
2022-08-03T04:09:14.381Z,18.35
2022-08-03T04:11:48.739Z,17.42
2022-08-03T04:14:20.965Z,10.70
2022-08-03T04:16:54.655Z,10.57
2022-08-03T04:19:29.363Z,9.13
2022-08-03T04:22:01.810Z,6.47
2022-08-03T04:24:34.886Z,5.43
2022-08-03T04:27:08.097Z,6.18
2022-08-03T04:29:44.769Z,5.57
2022-08-03T04:32:18.123Z,4.80
2022-08-03T04:34:46.567Z,5.43
2022-08-03T04:37:25.607Z,4.68
2022-08-03T04:39:57.645Z,5.38
2022-08-03T04:42:26.954Z,5.55
2022-08-03T04:45:00.859Z,5.43
2022-08-03T04:47:31.003Z,7.88
2022-08-03T04:49:59.279Z,6.70
2022-08-03T04:52:28.817Z,5.70
2022-08-03T04:54:56.925Z,6.65
2022-08-03T04:57:25.210Z,6.72
2022-08-03T05:00:02.131Z,4.18
2022-08-03T05:02:32.188Z,7.10
2022-08-03T05:05:00.627Z,5.07
2022-08-03T05:07:36.602Z,2.92
2022-08-03T05:10:16.100Z,6.03
2022-08-03T05:12:45.625Z,7.13
2022-08-03T05:15:14.012Z,3.33
2022-08-03T05:17:42.909Z,5.28
2022-08-03T05:20:12.754Z,4.82
2022-08-03T05:22:42.269Z,8.07
2022-08-03T05:25:19.154Z,4.18
2022-08-03T05:27:48.055Z,6.10
2022-08-03T05:30:31.240Z,7.03
2022-08-03T05:33:03.813Z,7.60
2022-08-03T05:36:00.766Z,6.32
2022-08-03T05:38:24.128Z,4.72
2022-08-03T05:41:20.335Z,3.13
2022-08-03T05:43:45.146Z,4.88
2022-08-03T05:46:13.419Z,8.07
2022-08-03T05:48:41.668Z,5.60
2022-08-03T05:51:11.919Z,4.65
2022-08-03T05:53:42.859Z,5.68
2022-08-03T05:56:13.616Z,5.95
2022-08-03T05:58:44.794Z,4.25
2022-08-03T06:01:13.043Z,4.10
2022-08-03T06:03:41.243Z,4.40
2022-08-03T06:06:09.615Z,6.05
2022-08-03T06:08:38.301Z,2.67
2022-08-03T06:11:07.901Z,5.93
2022-08-03T06:13:36.189Z,6.22
2022-08-03T06:16:04.519Z,3.63
2022-08-03T06:18:32.847Z,5.15
2022-08-03T06:21:14.239Z,4.93
2022-08-03T06:23:52.866Z,4.43
2022-08-03T06:26:25.200Z,3.53
2022-08-03T06:28:54.452Z,3.63
2022-08-03T06:31:26.215Z,2.80
2022-08-03T06:34:32.473Z,5.85
2022-08-03T06:36:58.465Z,5.82
2022-08-03T06:39:30.179Z,4.75
2022-08-03T06:41:59.792Z,2.92
2022-08-03T06:44:27.992Z,4.30
2022-08-03T06:46:56.086Z,4.40
2022-08-03T06:49:24.245Z,3.42
2022-08-03T06:52:04.118Z,3.78
2022-08-03T06:54:35.762Z,5.32
2022-08-03T06:57:06.450Z,3.58
2022-08-03T07:00:06.528Z,3.70
2022-08-03T07:02:22.704Z,4.43
2022-08-03T07:04:51.208Z,5.32
2022-08-03T07:07:20.684Z,2.80
2022-08-03T07:09:57.088Z,2.50
2022-08-03T07:12:29.062Z,2.92
2022-08-03T07:15:01.368Z,11.25
2022-08-03T07:17:31.387Z,3.72
2022-08-03T07:19:59.508Z,2.58
2022-08-03T07:22:28.484Z,2.83
2022-08-03T07:24:56.637Z,1.60
2022-08-03T07:27:27.164Z,2.15
2022-08-03T07:29:57.020Z,3.65
2022-08-03T07:32:25.812Z,5.18
2022-08-03T07:34:58.480Z,4.40
2022-08-03T07:37:28.600Z,4.40
2022-08-03T07:39:56.707Z,4.18
2022-08-03T07:42:25.065Z,2.83
2022-08-03T07:44:53.190Z,6.00
2022-08-03T07:47:24.845Z,3.55
2022-08-03T07:49:53.507Z,3.90
2022-08-03T07:52:39.484Z,3.63
2022-08-03T07:55:08.532Z,2.50
2022-08-03T07:57:36.790Z,4.03
2022-08-03T08:00:07.545Z,4.70
2022-08-03T08:02:42.850Z,3.35
2022-08-03T08:05:12.666Z,5.45
2022-08-03T08:07:41.513Z,3.33
2022-08-03T08:10:11.043Z,1.50
2022-08-03T08:12:39.678Z,4.88
2022-08-03T08:15:09.614Z,3.72
2022-08-03T08:17:47.449Z,2.47
2022-08-03T08:20:28.488Z,4.25
2022-08-03T08:23:01.503Z,1.88
2022-08-03T08:25:31.517Z,2.10
2022-08-03T08:28:22.325Z,2.47
2022-08-03T08:30:50.867Z,2.13
2022-08-03T08:33:22.629Z,4.30
2022-08-03T08:35:53.551Z,1.45
2022-08-03T08:38:21.828Z,2.38
2022-08-03T08:40:50.772Z,1.38
2022-08-03T08:43:18.897Z,1.50
2022-08-03T08:45:48.514Z,1.17
2022-08-03T08:48:19.272Z,1.48
2022-08-03T08:50:49.634Z,1.73
2022-08-03T08:53:22.775Z,1.30
2022-08-03T08:56:00.671Z,1.98
2022-08-03T09:00:59.881Z,1.45
2022-08-03T09:03:29.958Z,3.10
2022-08-03T09:06:02.335Z,4.13
2022-08-03T09:08:31.359Z,2.63
2022-08-03T09:10:59.903Z,2.40
2022-08-03T09:13:29.284Z,1.15
2022-08-03T09:16:14.571Z,2.85
2022-08-03T09:18:43.692Z,3.45
2022-08-03T09:21:31.093Z,1.13
2022-08-03T09:24:04.287Z,1.30
2022-08-03T09:26:34.631Z,4.43
2022-08-03T09:29:11.226Z,1.95
2022-08-03T09:31:44.365Z,1.60
2022-08-03T09:34:14.790Z,4.10
2022-08-03T09:36:46.563Z,1.27
2022-08-03T09:39:16.453Z,1.58
2022-08-03T09:41:46.426Z,2.15
2022-08-03T09:44:24.251Z,2.80
2022-08-03T09:46:55.723Z,2.42
2022-08-03T09:49:25.106Z,5.82
2022-08-03T09:52:33.053Z,3.67
2022-08-03T09:54:43.892Z,4.00
2022-08-03T09:57:23.242Z,1.63
2022-08-03T09:59:54.988Z,1.50
2022-08-03T10:02:41.262Z,2.45
2022-08-03T10:05:11.183Z,2.25
2022-08-03T10:07:50.719Z,1.60
2022-08-03T10:10:30.994Z,3.03
2022-08-03T10:13:01.448Z,3.70
2022-08-03T10:16:24.208Z,2.25
2022-08-03T10:18:18.182Z,3.00
2022-08-03T10:20:50.538Z,4.05
2022-08-03T10:23:21.587Z,4.38
2022-08-03T10:25:53.951Z,1.85
2022-08-03T10:28:23.334Z,1.98
2022-08-03T10:30:54.088Z,1.67
2022-08-03T10:33:52.120Z,4.03
2022-08-03T10:36:15.293Z,3.17
2022-08-03T10:38:52.616Z,7.85
2022-08-03T10:41:22.391Z,3.97
2022-08-03T10:43:54.294Z,2.47
2022-08-03T10:46:22.958Z,1.60
2022-08-03T10:48:52.871Z,3.40
2022-08-03T10:51:21.856Z,3.10
2022-08-03T10:53:55.383Z,2.95
2022-08-03T10:57:13.355Z,4.43
2022-08-03T11:00:05.747Z,4.57
2022-08-03T11:03:07.445Z,2.33
2022-08-03T11:05:38.322Z,4.55
2022-08-03T11:08:28.107Z,3.33
2022-08-03T11:11:00.350Z,3.17
2022-08-03T11:13:31.989Z,4.82
2022-08-03T11:16:04.892Z,3.88
2022-08-03T11:18:34.841Z,3.80
2022-08-03T11:21:04.217Z,2.80
2022-08-03T11:24:04.410Z,2.85
2022-08-03T11:26:35.757Z,3.17
2022-08-03T11:29:29.024Z,2.92
2022-08-03T11:31:57.187Z,4.05
2022-08-03T11:34:25.958Z,5.05
2022-08-03T11:37:30.197Z,3.42
2022-08-03T11:40:02.667Z,2.70
2022-08-03T11:42:45.195Z,3.35
2022-08-03T11:45:13.592Z,2.83
2022-08-03T11:47:50.782Z,3.00
2022-08-03T11:50:21.457Z,4.78
2022-08-03T11:52:50.579Z,4.35
2022-08-03T11:55:21.974Z,3.78
2022-08-03T11:59:10.765Z,2.97
2022-08-03T12:00:40.528Z,7.50
2022-08-03T12:03:11.169Z,2.50
2022-08-03T12:05:51.129Z,2.55
2022-08-03T12:08:33.422Z,3.08
2022-08-03T12:11:03.121Z,3.28
2022-08-03T12:14:35.718Z,3.20
2022-08-03T12:16:29.728Z,5.95
2022-08-03T12:18:58.951Z,3.00
2022-08-03T12:21:27.351Z,3.83
2022-08-03T12:23:59.090Z,2.60
2022-08-03T12:26:27.986Z,3.90
2022-08-03T12:28:58.288Z,5.80
2022-08-03T12:31:26.719Z,3.53
2022-08-03T12:34:00.390Z,2.67
2022-08-03T12:36:29.090Z,2.78
2022-08-03T12:38:59.102Z,4.35
2022-08-03T12:41:35.413Z,2.72
2022-08-03T12:44:06.431Z,5.90
2022-08-03T12:46:36.830Z,3.28
2022-08-03T12:49:07.988Z,4.13
2022-08-03T12:51:37.987Z,3.17
2022-08-03T12:54:07.186Z,4.40
2022-08-03T12:56:35.657Z,3.15
2022-08-03T12:59:34.779Z,3.08
2022-08-03T13:02:16.853Z,6.78
2022-08-03T13:04:47.363Z,3.10
2022-08-03T13:07:16.839Z,4.78
2022-08-03T13:09:47.721Z,2.78
2022-08-03T13:12:17.688Z,2.97
2022-08-03T13:14:49.354Z,2.20
2022-08-03T13:17:18.053Z,5.82
2022-08-03T13:19:47.149Z,3.72
2022-08-03T13:22:16.863Z,3.97
2022-08-03T13:24:46.334Z,2.50
2022-08-03T13:28:01.936Z,4.65
2022-08-03T13:30:04.710Z,4.47
2022-08-03T13:32:33.659Z,2.40
2022-08-03T13:35:02.594Z,5.32
2022-08-03T13:37:32.308Z,3.35
2022-08-03T13:40:03.075Z,3.45
2022-08-03T13:42:34.480Z,2.95
2022-08-03T13:45:05.386Z,6.78
2022-08-03T13:47:33.604Z,3.05
2022-08-03T13:50:03.039Z,2.63
2022-08-03T13:52:35.606Z,2.53
2022-08-03T13:55:05.405Z,3.30
2022-08-03T13:58:03.025Z,2.30
2022-08-03T14:00:28.232Z,4.13
2022-08-03T14:05:35.898Z,3.08
2022-08-03T14:08:05.680Z,2.20
2022-08-03T14:10:35.413Z,3.78
2022-08-03T14:13:03.822Z,6.60
2022-08-03T14:15:37.856Z,7.05
2022-08-03T14:18:07.295Z,4.90
2022-08-03T14:20:50.099Z,4.45
2022-08-03T14:23:19.981Z,2.85
2022-08-03T14:25:51.769Z,2.85
2022-08-03T14:28:22.641Z,3.40
2022-08-03T14:30:52.859Z,2.25
2022-08-03T14:33:21.189Z,3.25
2022-08-03T14:35:50.429Z,2.67
2022-08-03T14:38:19.667Z,3.58
2022-08-03T14:40:48.104Z,7.20
2022-08-03T14:43:18.001Z,3.40
2022-08-03T14:45:46.353Z,3.72
2022-08-03T14:50:33.248Z,3.22
2022-08-03T14:51:06.192Z,2.67
2022-08-03T14:53:35.711Z,5.88
2022-08-03T14:56:09.443Z,3.75
2022-08-03T14:58:38.573Z,3.83
2022-08-03T15:02:02.978Z,4.57
2022-08-03T15:03:56.905Z,3.00
2022-08-03T15:06:25.714Z,2.53
2022-08-03T15:09:13.685Z,2.55
2022-08-03T15:11:42.645Z,3.67
2022-08-03T15:14:10.847Z,3.22
2022-08-03T15:16:42.030Z,2.60
2022-08-03T15:20:00.341Z,3.30
2022-08-03T15:22:00.948Z,2.33
2022-08-03T15:24:29.502Z,4.35
2022-08-03T15:26:57.621Z,5.15
2022-08-03T15:30:08.221Z,4.70
2022-08-03T15:32:13.854Z,5.22
2022-08-03T15:34:50.374Z,3.50
2022-08-03T15:37:19.967Z,3.55
2022-08-03T15:39:59.622Z,7.75
2022-08-03T15:42:29.617Z,3.13
2022-08-03T15:44:58.133Z,3.10
2022-08-03T15:47:26.688Z,2.85
2022-08-03T15:49:56.271Z,3.90
2022-08-03T15:52:24.528Z,4.07
2022-08-03T15:54:52.941Z,4.00
2022-08-03T15:57:21.456Z,2.70
2022-08-03T15:59:49.801Z,3.47
2022-08-03T16:02:18.033Z,3.40
2022-08-03T16:04:46.186Z,4.07
2022-08-03T16:07:16.360Z,4.35
2022-08-03T16:09:44.595Z,4.15
2022-08-03T16:12:16.384Z,4.20
2022-08-03T16:14:52.928Z,2.88
2022-08-03T16:17:22.591Z,3.83
2022-08-03T16:19:51.066Z,3.05
2022-08-03T16:22:24.511Z,4.35
2022-08-03T16:24:53.263Z,3.45
2022-08-03T16:27:37.500Z,3.83
2022-08-03T16:30:11.405Z,2.45
2022-08-03T16:32:39.958Z,5.53
2022-08-03T16:35:08.897Z,2.75
2022-08-03T16:37:39.490Z,8.43
2022-08-03T16:40:19.323Z,3.28
2022-08-03T16:42:48.072Z,4.72
2022-08-03T16:45:16.213Z,2.75
2022-08-03T16:47:44.332Z,4.78
2022-08-03T16:50:19.110Z,3.03
2022-08-03T16:52:49.151Z,3.33
2022-08-03T16:55:42.945Z,2.72
2022-08-03T16:58:06.887Z,3.80
2022-08-03T17:00:41.275Z,2.55
2022-08-03T17:03:19.083Z,6.00
2022-08-03T17:05:50.212Z,4.75
2022-08-03T17:08:26.170Z,7.20
2022-08-03T17:10:55.935Z,2.22
2022-08-03T17:13:38.902Z,6.50
2022-08-03T17:16:12.136Z,3.53
2022-08-03T17:18:52.373Z,3.42
2022-08-03T17:21:29.514Z,3.00
2022-08-03T17:24:12.367Z,2.40
2022-08-03T17:26:43.585Z,2.63
2022-08-03T17:29:14.944Z,2.05
2022-08-03T17:31:48.837Z,3.80
2022-08-03T17:34:19.075Z,2.92
2022-08-03T17:37:03.668Z,3.97
2022-08-03T17:39:58.851Z,2.97
2022-08-03T17:42:30.720Z,2.95
2022-08-03T17:45:02.319Z,4.53
2022-08-03T17:47:41.102Z,4.22
2022-08-03T17:50:25.255Z,3.78
2022-08-03T17:53:07.439Z,3.90
2022-08-03T17:55:56.319Z,4.57
2022-08-03T17:58:54.843Z,2.50
2022-08-03T18:01:59.529Z,10.77
2022-08-03T18:04:35.297Z,6.55
2022-08-03T18:10:03.976Z,5.88
2022-08-03T18:12:53.457Z,5.13
2022-08-03T18:15:30.474Z,5.50
2022-08-03T18:18:07.487Z,8.30
2022-08-03T18:20:42.109Z,7.07
2022-08-03T18:23:25.009Z,6.78
2022-08-03T18:26:02.731Z,9.70
2022-08-03T18:28:35.933Z,4.85
2022-08-03T18:31:06.049Z,5.28
2022-08-03T18:34:17.565Z,4.53
2022-08-03T18:36:30.560Z,4.90
2022-08-03T18:38:59.971Z,6.53
2022-08-03T18:41:32.886Z,3.33
2022-08-03T18:44:08.104Z,3.95
2022-08-03T18:46:51.463Z,4.30
2022-08-03T18:49:38.762Z,2.92
2022-08-03T18:52:15.246Z,3.45
2022-08-03T18:57:46.645Z,3.55
2022-08-03T19:03:12.486Z,4.20
2022-08-03T19:06:02.788Z,5.18
2022-08-03T19:08:44.054Z,4.95
2022-08-03T19:11:28.118Z,6.13
2022-08-03T19:13:59.307Z,4.63
2022-08-03T19:16:35.811Z,4.40
2022-08-03T19:19:10.916Z,4.70
2022-08-03T19:21:43.341Z,6.60
2022-08-03T19:24:14.263Z,5.47
2022-08-03T19:26:43.856Z,6.28
2022-08-03T19:29:18.763Z,5.20
2022-08-03T19:31:59.253Z,4.95
2022-08-03T19:34:29.746Z,4.38
2022-08-03T19:36:58.341Z,6.28
2022-08-03T19:39:27.229Z,4.75
2022-08-03T19:42:08.092Z,4.93
2022-08-03T19:44:41.418Z,12.25
2022-08-03T19:47:16.752Z,8.55
2022-08-03T19:50:04.869Z,7.97
2022-08-03T19:52:37.588Z,5.35
2022-08-03T19:55:12.528Z,6.45
2022-08-03T19:57:44.158Z,5.28
2022-08-03T20:00:19.503Z,4.72
2022-08-03T20:02:50.985Z,8.30
2022-08-03T20:05:20.140Z,6.55
2022-08-03T20:07:48.770Z,6.75
2022-08-03T20:10:18.958Z,8.23
2022-08-03T20:12:48.513Z,5.88
2022-08-03T20:15:18.359Z,4.47
2022-08-03T20:17:56.710Z,5.07
2022-08-03T20:20:30.452Z,6.60
2022-08-03T20:23:00.433Z,5.00
2022-08-03T20:25:38.311Z,7.18
2022-08-03T20:28:14.054Z,6.25
2022-08-03T20:30:46.412Z,5.63
2022-08-03T20:33:18.290Z,4.90
2022-08-03T20:35:48.999Z,5.80
2022-08-03T20:38:18.415Z,5.38
2022-08-03T20:40:47.312Z,4.82
2022-08-03T20:43:15.670Z,6.15
2022-08-03T20:46:00.074Z,4.88
2022-08-03T20:48:35.846Z,5.43
2022-08-03T20:51:19.637Z,9.13
2022-08-03T20:53:56.955Z,5.05
2022-08-03T20:56:33.607Z,7.13
2022-08-03T20:59:04.750Z,5.55
2022-08-03T21:01:36.682Z,6.97
2022-08-03T21:04:09.265Z,7.53
2022-08-03T21:06:45.649Z,8.00
2022-08-03T21:09:33.546Z,8.43
2022-08-03T21:12:13.262Z,6.88
2022-08-03T21:13:00.964Z,3.35
2022-08-03T21:13:04.520Z,8.60
2022-08-03T21:13:09.392Z,5.15
2022-08-03T21:14:52.245Z,6.30
2022-08-03T21:17:39.962Z,9.38
2022-08-03T21:20:12.239Z,7.05
2022-08-03T21:22:44.610Z,5.07
2022-08-03T21:25:16.317Z,6.45
2022-08-03T21:27:45.009Z,4.53
2022-08-03T21:30:15.528Z,4.57
2022-08-03T21:32:46.357Z,3.72
2022-08-03T21:35:16.900Z,3.78
2022-08-03T21:37:45.850Z,5.78
2022-08-03T21:40:16.028Z,4.82
2022-08-03T21:42:46.272Z,4.35
2022-08-03T21:45:17.781Z,6.75
2022-08-03T21:47:46.797Z,5.18
2022-08-03T21:50:18.153Z,4.47
2022-08-03T21:52:48.367Z,5.70
2022-08-03T21:55:20.390Z,5.10
2022-08-03T21:57:52.840Z,4.82
2022-08-03T22:00:23.229Z,5.18
2022-08-03T22:02:55.770Z,4.38
2022-08-03T22:05:28.958Z,3.83
2022-08-03T22:08:11.449Z,2.92
2022-08-03T22:10:40.475Z,5.85
2022-08-03T22:13:08.719Z,7.00
2022-08-03T22:15:36.885Z,7.38
2022-08-03T22:18:06.071Z,4.32
2022-08-03T22:20:35.688Z,3.78
2022-08-03T22:23:05.178Z,5.13
2022-08-03T22:25:35.279Z,5.35
2022-08-03T22:28:13.125Z,4.22
2022-08-03T22:30:42.678Z,4.53
2022-08-03T22:33:13.231Z,5.25
2022-08-03T22:35:47.814Z,4.13
2022-08-03T22:38:17.686Z,5.07
2022-08-03T22:40:48.188Z,3.97
2022-08-03T22:43:16.666Z,6.07
2022-08-03T22:46:09.023Z,5.55
2022-08-03T22:48:41.327Z,5.10
2022-08-03T22:51:11.815Z,3.58
2022-08-03T22:53:41.573Z,5.00
2022-08-03T22:56:10.212Z,4.45
2022-08-03T22:58:38.750Z,3.10
2022-08-03T23:01:08.927Z,5.45
2022-08-03T23:04:00.479Z,9.68
2022-08-03T23:06:35.019Z,7.03
2022-08-03T23:09:06.666Z,2.88
2022-08-03T23:11:37.837Z,4.13
2022-08-03T23:14:13.010Z,3.22
2022-08-03T23:16:43.200Z,8.07
2022-08-03T23:19:17.089Z,8.50
2022-08-03T23:22:02.432Z,4.15
2022-08-03T23:24:34.983Z,3.40
2022-08-03T23:27:04.110Z,5.72
2022-08-03T23:29:34.887Z,3.25
2022-08-03T23:32:04.006Z,6.20
2022-08-03T23:34:50.837Z,3.05
2022-08-03T23:37:21.214Z,5.30
2022-08-03T23:39:50.455Z,3.97
2022-08-03T23:42:20.609Z,4.63
2022-08-03T23:44:53.927Z,4.82
2022-08-03T23:47:22.274Z,5.07
2022-08-03T23:49:50.937Z,4.82
2022-08-03T23:52:29.569Z,8.48
2022-08-03T23:55:08.873Z,4.47
2022-08-03T23:57:49.943Z,6.30
